createdAt,value
2023-09-23T00:00:48.121Z,13.80
2023-09-23T00:03:15.370Z,13.70
2023-09-23T00:05:45.250Z,13.80
2023-09-23T00:08:12.795Z,13.90
2023-09-23T00:10:40.157Z,13.90
2023-09-23T00:13:07.379Z,13.80
2023-09-23T00:15:36.597Z,13.80
2023-09-23T00:18:06.229Z,13.70
2023-09-23T00:20:34.195Z,13.60
2023-09-23T00:23:02.394Z,13.70
2023-09-23T00:25:29.535Z,13.70
2023-09-23T00:27:56.460Z,13.60
2023-09-23T00:30:24.445Z,13.80
2023-09-23T00:32:52.112Z,13.80
2023-09-23T00:35:20.419Z,13.70
2023-09-23T00:37:50.027Z,13.70
2023-09-23T00:40:25.778Z,13.70
2023-09-23T00:42:52.876Z,13.60
2023-09-23T00:45:23.508Z,13.60
2023-09-23T00:47:50.902Z,13.50
2023-09-23T00:50:19.825Z,13.50
2023-09-23T00:52:54.195Z,13.50
2023-09-23T00:55:22.119Z,13.50
2023-09-23T00:58:00.927Z,13.60
2023-09-23T01:00:30.653Z,13.60
2023-09-23T01:02:59.286Z,13.60
2023-09-23T01:05:31.060Z,13.70
2023-09-23T01:08:12.534Z,13.70
2023-09-23T01:10:41.027Z,13.70
2023-09-23T01:13:09.106Z,13.60
2023-09-23T01:15:41.578Z,13.60
2023-09-23T01:18:09.506Z,13.60
2023-09-23T01:20:39.137Z,13.70
2023-09-23T01:23:06.566Z,13.70
2023-09-23T01:25:37.494Z,13.60
2023-09-23T01:28:09.892Z,13.50
2023-09-23T01:30:37.307Z,13.50
2023-09-23T01:33:10.502Z,13.60
2023-09-23T01:35:38.304Z,13.60
2023-09-23T01:38:06.532Z,13.50
2023-09-23T01:40:35.518Z,13.50
2023-09-23T01:43:03.320Z,13.70
2023-09-23T01:45:31.527Z,13.60
2023-09-23T01:47:58.748Z,13.50
2023-09-23T01:50:27.321Z,13.60
2023-09-23T01:52:57.359Z,13.60
2023-09-23T01:55:24.342Z,13.40
2023-09-23T01:57:51.380Z,13.50
2023-09-23T02:00:27.793Z,13.50
2023-09-23T02:02:58.714Z,13.40
2023-09-23T02:05:29.755Z,13.40
2023-09-23T02:07:57.448Z,13.50
2023-09-23T02:10:27.511Z,13.70
2023-09-23T02:12:55.449Z,13.70
2023-09-23T02:15:22.743Z,13.70
2023-09-23T02:17:50.526Z,13.60
2023-09-23T02:20:20.512Z,13.70
2023-09-23T02:22:49.261Z,13.60
2023-09-23T02:25:18.092Z,13.50
2023-09-23T02:27:46.218Z,13.50
2023-09-23T02:30:15.284Z,13.70
2023-09-23T02:32:48.252Z,13.60
2023-09-23T02:35:17.727Z,13.60
2023-09-23T02:37:47.434Z,13.60
2023-09-23T02:40:17.421Z,13.60
2023-09-23T02:42:46.656Z,13.70
2023-09-23T02:45:15.657Z,13.60
2023-09-23T02:47:45.330Z,13.70
2023-09-23T02:50:16.708Z,13.70
2023-09-23T02:52:51.067Z,13.60
2023-09-23T02:55:20.597Z,13.40
2023-09-23T02:57:51.780Z,13.40
2023-09-23T03:00:31.699Z,13.30
2023-09-23T03:03:00.134Z,13.20
2023-09-23T03:05:31.181Z,13.40
2023-09-23T03:08:00.158Z,13.40
2023-09-23T03:10:42.775Z,13.60
2023-09-23T03:13:12.913Z,13.60
2023-09-23T03:15:49.493Z,13.70
2023-09-23T03:18:19.119Z,13.50
2023-09-23T03:20:46.118Z,13.60
2023-09-23T03:23:13.756Z,13.60
2023-09-23T03:25:46.249Z,13.70
2023-09-23T03:28:17.118Z,13.70
2023-09-23T03:30:48.444Z,13.70
2023-09-23T03:33:19.909Z,13.60
2023-09-23T03:35:48.112Z,13.40
2023-09-23T03:38:17.945Z,13.50
2023-09-23T03:41:01.095Z,13.50
2023-09-23T03:43:28.555Z,13.40
2023-09-23T03:45:56.991Z,13.30
2023-09-23T03:48:24.037Z,13.30
2023-09-23T03:50:55.264Z,13.30
2023-09-23T03:53:23.565Z,13.40
2023-09-23T03:55:57.043Z,13.30
2023-09-23T03:58:26.097Z,13.40
2023-09-23T04:00:56.197Z,13.40
2023-09-23T04:03:24.170Z,13.30
2023-09-23T04:05:56.706Z,13.30
2023-09-23T04:08:23.917Z,13.30
2023-09-23T04:10:51.088Z,13.30
2023-09-23T04:13:18.112Z,13.40
2023-09-23T04:15:45.152Z,13.40
2023-09-23T04:18:12.696Z,13.40
2023-09-23T04:20:39.638Z,13.40
2023-09-23T04:23:07.486Z,13.30
2023-09-23T04:25:34.435Z,13.30
2023-09-23T04:28:03.053Z,13.20
2023-09-23T04:30:30.184Z,13.20
2023-09-23T04:32:57.299Z,13.30
2023-09-23T04:35:24.763Z,13.40
2023-09-23T04:37:52.660Z,13.30
2023-09-23T04:40:19.828Z,13.10
2023-09-23T04:42:49.595Z,13.10
2023-09-23T04:45:16.596Z,13.10
2023-09-23T04:47:46.964Z,13.10
2023-09-23T04:50:14.364Z,13.00
2023-09-23T04:52:42.505Z,13.00
2023-09-23T04:55:10.119Z,13.10
2023-09-23T04:57:39.910Z,13.10
2023-09-23T05:00:10.695Z,13.10
2023-09-23T05:02:40.961Z,13.10
2023-09-23T05:05:11.236Z,13.00
2023-09-23T05:07:38.965Z,13.00
2023-09-23T05:10:07.864Z,13.00
2023-09-23T05:12:35.248Z,13.10
2023-09-23T05:15:02.337Z,13.20
2023-09-23T05:17:29.785Z,13.00
2023-09-23T05:19:57.040Z,12.90
2023-09-23T05:22:24.694Z,13.00
2023-09-23T05:24:58.103Z,13.10
2023-09-23T05:27:25.560Z,13.10
2023-09-23T05:29:53.278Z,13.10
2023-09-23T05:32:21.774Z,13.10
2023-09-23T05:34:52.755Z,13.00
2023-09-23T05:37:20.184Z,12.80
2023-09-23T05:39:47.587Z,12.90
2023-09-23T05:42:15.209Z,13.00
2023-09-23T05:44:42.578Z,13.00
2023-09-23T05:47:10.424Z,13.00
2023-09-23T05:49:40.120Z,13.10
2023-09-23T05:52:07.393Z,13.00
2023-09-23T05:54:34.830Z,12.90
2023-09-23T05:57:01.974Z,12.90
2023-09-23T05:59:29.058Z,12.80
2023-09-23T06:01:56.281Z,12.80
2023-09-23T06:04:23.627Z,12.80
2023-09-23T06:06:50.786Z,12.90
2023-09-23T06:09:18.016Z,12.90
2023-09-23T06:11:46.747Z,12.90
2023-09-23T06:14:13.759Z,13.00
2023-09-23T06:16:40.774Z,12.90
2023-09-23T06:19:09.743Z,12.90
2023-09-23T06:21:38.042Z,12.80
2023-09-23T06:24:05.226Z,12.80
2023-09-23T06:26:32.255Z,13.00
2023-09-23T06:28:59.300Z,13.00
2023-09-23T06:31:26.380Z,12.90
2023-09-23T06:33:53.624Z,13.00
2023-09-23T06:36:20.570Z,13.10
2023-09-23T06:38:47.586Z,13.10
2023-09-23T06:41:14.738Z,13.20
2023-09-23T06:43:41.743Z,13.10
2023-09-23T06:46:08.669Z,13.20
2023-09-23T06:48:36.008Z,13.10
2023-09-23T06:51:04.354Z,13.20
2023-09-23T06:53:31.881Z,13.10
2023-09-23T06:55:59.182Z,13.20
2023-09-23T06:58:26.308Z,13.10
2023-09-23T07:00:53.387Z,13.10
2023-09-23T07:03:20.886Z,13.40
2023-09-23T07:05:49.498Z,13.60
2023-09-23T07:08:17.733Z,13.70
2023-09-23T07:10:44.910Z,13.90
2023-09-23T07:13:13.328Z,13.80
2023-09-23T07:15:42.005Z,13.90
2023-09-23T07:18:09.727Z,13.80
2023-09-23T07:20:37.196Z,13.70
2023-09-23T07:23:04.582Z,14.00
2023-09-23T07:25:38.210Z,14.00
2023-09-23T07:28:07.998Z,14.10
2023-09-23T07:30:36.413Z,14.00
2023-09-23T07:33:04.130Z,14.20
2023-09-23T07:35:35.382Z,14.30
2023-09-23T07:38:04.118Z,14.50
2023-09-23T07:40:32.112Z,14.60
2023-09-23T07:42:59.447Z,14.60
2023-09-23T07:45:26.847Z,14.70
2023-09-23T07:47:54.000Z,14.80
2023-09-23T07:50:21.345Z,14.90
2023-09-23T07:52:48.542Z,14.90
2023-09-23T07:55:15.714Z,15.10
2023-09-23T07:57:43.327Z,15.20
2023-09-23T08:00:11.166Z,15.60
2023-09-23T08:02:38.476Z,15.70
2023-09-23T08:05:06.645Z,15.80
2023-09-23T08:07:34.067Z,15.90
2023-09-23T08:10:01.108Z,16.10
2023-09-23T08:12:29.498Z,16.00
2023-09-23T08:14:56.965Z,16.30
2023-09-23T08:17:24.352Z,16.30
2023-09-23T08:19:52.856Z,16.50
2023-09-23T08:22:20.142Z,16.70
2023-09-23T08:24:47.053Z,16.60
2023-09-23T08:27:14.227Z,16.60
2023-09-23T08:29:41.395Z,16.60
2023-09-23T08:32:08.843Z,16.50
2023-09-23T08:34:36.333Z,16.20
2023-09-23T08:37:03.977Z,16.50
2023-09-23T08:39:31.050Z,16.40
2023-09-23T08:42:00.124Z,16.60
2023-09-23T08:44:30.767Z,16.80
2023-09-23T08:46:58.178Z,16.80
2023-09-23T08:49:26.663Z,17.10
2023-09-23T08:51:57.540Z,17.40
2023-09-23T08:54:29.653Z,17.80
2023-09-23T08:56:57.091Z,17.50
2023-09-23T08:59:24.686Z,17.70
2023-09-23T09:01:52.034Z,17.70
2023-09-23T09:04:19.236Z,17.80
2023-09-23T09:06:54.787Z,17.80
2023-09-23T09:09:24.979Z,18.00
2023-09-23T09:11:55.283Z,18.10
2023-09-23T09:14:24.856Z,17.80
2023-09-23T09:16:52.764Z,18.10
2023-09-23T09:19:20.923Z,18.20
2023-09-23T09:21:50.543Z,18.30
2023-09-23T09:24:18.137Z,18.30
2023-09-23T09:26:49.867Z,18.60
2023-09-23T09:29:17.901Z,18.70
2023-09-23T09:31:50.880Z,18.70
2023-09-23T09:34:23.500Z,19.00
2023-09-23T09:36:57.175Z,19.10
2023-09-23T09:39:36.156Z,19.40
2023-09-23T09:42:07.081Z,19.50
2023-09-23T09:44:36.059Z,19.60
2023-09-23T09:47:04.146Z,19.70
2023-09-23T09:49:34.641Z,19.50
2023-09-23T09:52:02.374Z,19.60
2023-09-23T09:54:32.319Z,19.50
2023-09-23T09:57:00.530Z,19.20
2023-09-23T09:59:33.472Z,19.60
2023-09-23T10:02:01.561Z,19.60
2023-09-23T10:04:35.338Z,18.90
2023-09-23T10:07:07.321Z,18.90
2023-09-23T10:09:39.339Z,18.50
2023-09-23T10:12:08.903Z,18.80
2023-09-23T10:14:36.030Z,18.60
2023-09-23T10:17:05.845Z,18.80
2023-09-23T10:19:34.116Z,19.10
2023-09-23T10:22:14.596Z,19.30
2023-09-23T10:24:42.440Z,19.90
2023-09-23T10:27:14.252Z,20.00
2023-09-23T10:29:47.073Z,20.20
2023-09-23T10:32:19.292Z,19.80
2023-09-23T10:34:51.020Z,19.60
2023-09-23T10:37:40.030Z,19.70
2023-09-23T10:40:13.559Z,19.30
2023-09-23T10:42:42.546Z,19.30
2023-09-23T10:45:12.784Z,19.50
2023-09-23T10:47:40.336Z,20.00
2023-09-23T10:50:09.262Z,20.40
2023-09-23T10:52:36.332Z,20.70
2023-09-23T10:55:04.350Z,21.20
2023-09-23T10:57:31.324Z,21.40
2023-09-23T10:59:59.580Z,21.70
2023-09-23T11:02:26.826Z,21.80
2023-09-23T11:04:56.962Z,22.10
2023-09-23T11:07:25.866Z,21.90
2023-09-23T11:09:55.307Z,21.60
2023-09-23T11:12:31.885Z,21.60
2023-09-23T11:15:00.380Z,21.90
2023-09-23T11:17:31.021Z,22.50
2023-09-23T11:20:02.289Z,22.60
2023-09-23T11:22:33.915Z,22.90
2023-09-23T11:25:01.070Z,23.00
2023-09-23T11:27:28.387Z,23.20
2023-09-23T11:29:56.727Z,23.30
2023-09-23T11:32:29.564Z,23.20
2023-09-23T11:34:56.677Z,23.30
2023-09-23T11:37:24.537Z,23.00
2023-09-23T11:39:51.649Z,22.70
2023-09-23T11:42:18.876Z,23.10
2023-09-23T11:44:45.981Z,23.50
2023-09-23T11:47:13.251Z,23.80
2023-09-23T11:49:40.274Z,23.60
2023-09-23T11:52:13.679Z,23.00
2023-09-23T11:54:41.969Z,22.60
2023-09-23T11:57:09.839Z,22.70
2023-09-23T11:59:37.649Z,22.60
2023-09-23T12:02:05.093Z,22.60
2023-09-23T12:04:32.606Z,22.50
2023-09-23T12:07:00.025Z,22.40
2023-09-23T12:09:27.427Z,22.50
2023-09-23T12:11:55.111Z,22.60
2023-09-23T12:14:22.122Z,22.20
2023-09-23T12:16:49.096Z,21.70
2023-09-23T12:19:18.005Z,21.50
2023-09-23T12:21:48.456Z,21.40
2023-09-23T12:24:15.572Z,21.20
2023-09-23T12:26:42.716Z,21.30
2023-09-23T12:29:09.858Z,21.40
2023-09-23T12:31:38.406Z,21.40
2023-09-23T12:34:05.613Z,21.50
2023-09-23T12:36:32.675Z,21.70
2023-09-23T12:39:00.142Z,21.40
2023-09-23T12:41:27.211Z,21.10
2023-09-23T12:43:54.554Z,21.30
2023-09-23T12:46:21.718Z,20.70
2023-09-23T12:48:49.194Z,21.10
2023-09-23T12:51:16.527Z,21.30
2023-09-23T12:53:43.639Z,21.60
2023-09-23T12:56:13.160Z,21.90
2023-09-23T12:58:40.565Z,21.80
2023-09-23T13:01:08.386Z,21.90
2023-09-23T13:03:35.671Z,22.40
2023-09-23T13:06:02.942Z,22.60
2023-09-23T13:08:30.686Z,22.70
2023-09-23T13:10:58.188Z,22.60
2023-09-23T13:13:25.140Z,22.20
2023-09-23T13:15:52.451Z,22.20
2023-09-23T13:18:20.222Z,22.00
2023-09-23T13:20:47.880Z,21.90
2023-09-23T13:23:15.552Z,21.70
2023-09-23T13:25:42.521Z,21.00
2023-09-23T13:28:09.705Z,20.60
2023-09-23T13:30:37.439Z,20.70
2023-09-23T13:33:10.027Z,20.90
2023-09-23T13:35:37.956Z,21.50
2023-09-23T13:38:07.945Z,22.00
2023-09-23T13:40:38.182Z,22.30
2023-09-23T13:43:05.439Z,22.30
2023-09-23T13:45:32.645Z,22.60
2023-09-23T13:47:59.826Z,23.00
2023-09-23T13:50:27.592Z,22.90
2023-09-23T13:52:54.723Z,22.80
2023-09-23T13:55:21.892Z,22.20
2023-09-23T13:57:49.055Z,22.30
2023-09-23T14:00:16.222Z,22.60
2023-09-23T14:02:43.641Z,22.70
2023-09-23T14:05:12.278Z,22.80
2023-09-23T14:07:39.842Z,22.40
2023-09-23T14:10:20.613Z,22.60
2023-09-23T14:12:50.620Z,22.90
2023-09-23T14:15:18.629Z,23.40
2023-09-23T14:17:47.599Z,23.80
2023-09-23T14:20:15.272Z,24.10
2023-09-23T14:22:46.693Z,24.30
2023-09-23T14:25:15.736Z,24.80
2023-09-23T14:27:44.147Z,24.50
2023-09-23T14:30:11.858Z,24.60
2023-09-23T14:32:39.574Z,24.70
2023-09-23T14:35:07.404Z,24.70
2023-09-23T14:37:35.172Z,24.80
2023-09-23T14:40:02.429Z,25.10
2023-09-23T14:42:29.513Z,25.00
2023-09-23T14:44:56.442Z,24.50
2023-09-23T14:47:24.236Z,24.10
2023-09-23T14:49:51.254Z,24.10
2023-09-23T14:52:18.148Z,24.40
2023-09-23T14:54:45.305Z,24.70
2023-09-23T14:57:12.376Z,24.40
2023-09-23T14:59:39.375Z,24.40
2023-09-23T15:02:07.666Z,24.20
2023-09-23T15:04:35.515Z,24.10
2023-09-23T15:07:03.085Z,24.10
2023-09-23T15:09:30.242Z,23.70
2023-09-23T15:11:57.735Z,23.30
2023-09-23T15:14:24.969Z,22.90
2023-09-23T15:16:51.999Z,22.40
2023-09-23T15:19:22.157Z,22.70
2023-09-23T15:21:49.209Z,23.00
2023-09-23T15:24:16.234Z,23.30
2023-09-23T15:26:43.469Z,23.60
2023-09-23T15:29:11.325Z,23.80
2023-09-23T15:31:38.928Z,23.40
2023-09-23T15:34:06.650Z,23.30
2023-09-23T15:36:33.740Z,23.30
2023-09-23T15:39:00.737Z,22.80
2023-09-23T15:41:27.974Z,22.80
2023-09-23T15:43:55.613Z,22.80
2023-09-23T15:46:22.885Z,23.00
2023-09-23T15:48:50.468Z,23.20
2023-09-23T15:51:17.913Z,23.00
2023-09-23T15:53:45.784Z,22.90
2023-09-23T15:56:13.525Z,22.50
2023-09-23T15:58:40.625Z,22.40
2023-09-23T16:01:08.135Z,22.40
2023-09-23T16:03:35.792Z,22.30
2023-09-23T16:06:03.584Z,22.30
2023-09-23T16:08:30.892Z,22.30
2023-09-23T16:10:58.448Z,22.10
2023-09-23T16:13:25.409Z,21.70
2023-09-23T16:15:52.435Z,21.50
2023-09-23T16:18:22.479Z,21.30
2023-09-23T16:20:52.068Z,21.10
2023-09-23T16:23:19.731Z,21.00
2023-09-23T16:25:47.228Z,20.90
2023-09-23T16:28:14.229Z,20.70
2023-09-23T16:30:43.242Z,20.70
2023-09-23T16:33:10.618Z,20.50
2023-09-23T16:35:37.966Z,20.30
2023-09-23T16:38:05.351Z,20.50
2023-09-23T16:40:32.399Z,20.30
2023-09-23T16:43:01.404Z,20.50
2023-09-23T16:45:28.679Z,20.00
2023-09-23T16:47:57.153Z,20.00
2023-09-23T16:50:26.526Z,20.00
2023-09-23T16:52:54.460Z,19.90
2023-09-23T16:55:21.509Z,19.70
2023-09-23T16:57:48.467Z,19.70
2023-09-23T17:00:16.265Z,19.80
2023-09-23T17:02:43.244Z,19.70
2023-09-23T17:05:10.445Z,19.70
2023-09-23T17:07:37.350Z,19.70
2023-09-23T17:10:04.994Z,19.50
2023-09-23T17:12:32.138Z,19.40
2023-09-23T17:14:59.403Z,19.30
2023-09-23T17:17:26.575Z,19.20
2023-09-23T17:19:53.574Z,18.90
2023-09-23T17:22:20.465Z,18.80
2023-09-23T17:24:47.488Z,18.80
2023-09-23T17:27:14.516Z,18.80
2023-09-23T17:29:41.566Z,18.70
2023-09-23T17:32:08.640Z,18.60
2023-09-23T17:34:35.843Z,18.60
2023-09-23T17:37:03.113Z,18.60
2023-09-23T17:39:31.623Z,18.50
2023-09-23T17:41:58.675Z,18.60
2023-09-23T17:44:26.674Z,18.50
2023-09-23T17:46:54.151Z,18.50
2023-09-23T17:49:21.205Z,18.40
2023-09-23T17:51:48.377Z,18.30
2023-09-23T17:54:15.321Z,18.10
2023-09-23T17:56:42.784Z,18.00
2023-09-23T17:59:10.141Z,17.90
2023-09-23T18:01:37.284Z,17.70
2023-09-23T18:04:04.459Z,17.80
2023-09-23T18:06:31.733Z,17.80
2023-09-23T18:08:58.664Z,17.60
2023-09-23T18:11:26.328Z,17.50
2023-09-23T18:13:53.394Z,17.50
2023-09-23T18:16:20.517Z,17.40
2023-09-23T18:18:47.813Z,17.40
2023-09-23T18:21:15.454Z,17.30
2023-09-23T18:23:45.532Z,17.20
2023-09-23T18:26:14.815Z,17.20
2023-09-23T18:28:42.345Z,17.20
2023-09-23T18:31:09.459Z,17.20
2023-09-23T18:33:36.696Z,17.30
2023-09-23T18:36:04.115Z,17.30
2023-09-23T18:38:31.597Z,17.10
2023-09-23T18:40:58.753Z,17.10
2023-09-23T18:43:25.899Z,17.10
2023-09-23T18:45:54.321Z,17.10
2023-09-23T18:48:28.095Z,17.00
2023-09-23T18:50:57.437Z,17.00
2023-09-23T18:53:24.891Z,16.90
2023-09-23T18:55:52.631Z,16.90
2023-09-23T18:58:20.546Z,16.90
2023-09-23T19:00:48.106Z,17.10
2023-09-23T19:03:15.328Z,17.20
2023-09-23T19:05:44.672Z,17.10
2023-09-23T19:08:13.659Z,17.20
2023-09-23T19:10:41.289Z,17.20
2023-09-23T19:13:08.819Z,17.00
2023-09-23T19:15:35.909Z,16.90
2023-09-23T19:18:03.293Z,16.90
2023-09-23T19:20:30.611Z,16.90
2023-09-23T19:22:57.951Z,17.00
2023-09-23T19:25:24.855Z,17.00
2023-09-23T19:27:51.736Z,17.00
2023-09-23T19:30:19.504Z,17.00
2023-09-23T19:32:47.205Z,16.90
2023-09-23T19:35:14.448Z,17.10
2023-09-23T19:37:41.493Z,17.10
2023-09-23T19:40:10.117Z,16.90
2023-09-23T19:42:38.000Z,16.90
2023-09-23T19:45:05.736Z,16.70
2023-09-23T19:47:33.339Z,16.70
2023-09-23T19:50:01.140Z,16.50
2023-09-23T19:52:33.911Z,16.40
2023-09-23T19:55:01.578Z,16.30
2023-09-23T19:57:28.550Z,16.20
2023-09-23T19:59:56.629Z,16.00
2023-09-23T20:02:23.900Z,16.00
2023-09-23T20:04:51.134Z,15.90
2023-09-23T20:07:18.528Z,15.80
2023-09-23T20:09:46.100Z,15.70
2023-09-23T20:12:15.516Z,15.60
2023-09-23T20:14:43.736Z,15.60
2023-09-23T20:17:12.570Z,15.50
2023-09-23T20:19:39.902Z,15.40
2023-09-23T20:22:07.412Z,15.10
2023-09-23T20:24:34.851Z,15.10
2023-09-23T20:27:02.544Z,15.00
2023-09-23T20:29:29.739Z,14.90
2023-09-23T20:31:56.983Z,14.90
2023-09-23T20:34:25.204Z,14.90
2023-09-23T20:36:52.413Z,14.70
2023-09-23T20:39:21.648Z,14.80
2023-09-23T20:41:49.262Z,14.70
2023-09-23T20:44:16.555Z,14.70
2023-09-23T20:46:44.522Z,14.60
2023-09-23T20:49:14.185Z,14.60
2023-09-23T20:51:41.379Z,14.70
2023-09-23T20:54:08.483Z,14.60
2023-09-23T20:56:35.765Z,14.60
2023-09-23T20:59:03.815Z,14.40
2023-09-23T21:01:30.921Z,14.50
2023-09-23T21:03:58.190Z,14.50
2023-09-23T21:06:25.426Z,14.40
2023-09-23T21:08:52.351Z,14.40
2023-09-23T21:11:20.340Z,14.50
2023-09-23T21:13:48.088Z,14.40
2023-09-23T21:16:16.114Z,14.30
2023-09-23T21:18:43.524Z,14.20
2023-09-23T21:21:10.802Z,14.30
2023-09-23T21:23:37.893Z,14.30
2023-09-23T21:26:05.161Z,14.20
2023-09-23T21:28:32.246Z,14.20
2023-09-23T21:30:59.356Z,14.20
2023-09-23T21:33:27.296Z,14.30
2023-09-23T21:35:54.423Z,14.30
2023-09-23T21:38:21.452Z,14.50
2023-09-23T21:40:48.403Z,14.50
2023-09-23T21:43:15.433Z,14.30
2023-09-23T21:45:42.534Z,14.20
2023-09-23T21:48:09.778Z,14.20
2023-09-23T21:50:37.140Z,14.20
2023-09-23T21:53:05.621Z,14.10
2023-09-23T21:55:32.714Z,14.10
2023-09-23T21:57:59.992Z,14.10
2023-09-23T22:00:27.978Z,14.10
2023-09-23T22:03:00.544Z,14.00
2023-09-23T22:05:29.859Z,13.80
2023-09-23T22:08:01.536Z,13.90
2023-09-23T22:10:29.428Z,13.80
2023-09-23T22:12:57.438Z,13.60
2023-09-23T22:15:26.450Z,13.60
2023-09-23T22:17:54.733Z,13.60
2023-09-23T22:20:26.019Z,13.60
2023-09-23T22:22:54.105Z,13.60
2023-09-23T22:25:23.626Z,13.50
2023-09-23T22:27:57.684Z,13.40
2023-09-23T22:30:26.026Z,13.40
2023-09-23T22:32:56.940Z,13.40
2023-09-23T22:35:26.242Z,13.40
2023-09-23T22:37:53.626Z,13.30
2023-09-23T22:40:23.582Z,13.20
2023-09-23T22:42:51.539Z,13.30
2023-09-23T22:45:31.791Z,13.20
2023-09-23T22:48:04.031Z,13.20
2023-09-23T22:50:31.042Z,13.30
2023-09-23T22:52:58.397Z,13.30
2023-09-23T22:55:25.934Z,13.30
2023-09-23T22:57:54.011Z,13.20
2023-09-23T23:00:27.019Z,13.10
2023-09-23T23:02:58.443Z,13.10
2023-09-23T23:05:27.079Z,13.00
2023-09-23T23:07:56.603Z,12.90
2023-09-23T23:10:24.192Z,12.90
2023-09-23T23:12:52.194Z,12.90
2023-09-23T23:15:19.427Z,13.00
2023-09-23T23:17:48.591Z,12.90
2023-09-23T23:20:33.398Z,12.80
2023-09-23T23:23:00.627Z,12.70
2023-09-23T23:25:27.666Z,12.70
2023-09-23T23:27:55.396Z,12.70
2023-09-23T23:30:22.621Z,12.70
2023-09-23T23:32:50.546Z,12.70
2023-09-23T23:35:23.537Z,12.60
2023-09-23T23:37:52.122Z,12.60
2023-09-23T23:40:24.142Z,12.50
2023-09-23T23:42:51.317Z,12.50
2023-09-23T23:45:20.786Z,12.50
2023-09-23T23:47:48.647Z,12.60
2023-09-23T23:50:17.436Z,12.60
2023-09-23T23:52:47.211Z,12.50
2023-09-23T23:55:15.192Z,12.50
2023-09-23T23:57:42.516Z,12.60
